Pagrindinis puslapis
METAR-TAF:

METAR-TAF

Oro uostai :

Tarptautinis Ženevos oro uostas

Ženeva, Šveicarija

platuma: 46-15N, ilguma: 006-08E, Aukštis: 420 m

Dabartinis oras

Ataskaita buvo paskelbta 14 minutes, ne 16:50 UTC
Vėjas 3 kt nuo kintamojo kryptimis
Temperatūra 19°C
Drėgmė 52%
Slėgis 1021 hPa
Matomumas 10 km arba daugiau
Mažai debesys ne aukštis 5000 ft

METAR: LSGG 201650Z VRB03KT 9999 FEW050 19/09 Q1021 NOSIG

Laikas: 19:04 (17:04 UTC)

Prognozė

Ataskaita buvo paskelbta 2 valandos ir 39 minutes, ne 14:25 UTC
Prognozė galioja nuo 20 metu 15 UTC su 21 metu 21 UTC
Vėjas 6 kt iš Šiaurės Rytų
Matomumas 10 km arba daugiau
nėra debesų žemiau 1500 m ir nėra kamuolinių lietaus debesų

TAF: LSGG 201425Z 2015/2121 05006KT CAVOK TX20/2015Z TN11/2105Z TX23/2115Z

Orai ataskaitas ir orų prognozės (METAR, TAF).

turimą stotys yra geltonos ir raudonos taškus žemėlapyje.

Perkelti pele per norėdami pamatyti stoties vardą.

Tada spustelėkite, norėdami matyti oro stebėjimo ir prognozės.

Norėdami pakeisti žemėlapį: spustelėkite ant žalios mygtukų su juodo kryžiaus žemyn,; žalią mygtuką su brūkšneliu, jei norite nutolinti; arba žalių rodyklių gretimoms žemėlapius.


METAR-TAF: